Time;durP1;ratioP1;P1;durP2;ratioP2;P2;SDS_P1;SDS_P2;PMS_P1;PMS_P2;Temp;Humidity;BMP_temperature;BMP_pressure;BME280_temperature;BME280_humidity;BME280_pressure;Samples;Min_cycle;Max_cycle;Signal;HPM_P1;HPM_P2
2022/07/09 00:02:08;;;;;;;5.65;4.32;;;19.00;99.90;;;;;;4976995;28;20193;-82
2022/07/09 00:04:36;;;;;;;5.03;4.38;;;18.90;99.90;;;;;;4990531;28;20211;-82
2022/07/09 00:07:05;;;;;;;6.07;4.70;;;18.90;99.90;;;;;;4989442;28;20205;-82
2022/07/09 00:09:32;;;;;;;7.85;5.10;;;18.90;99.90;;;;;;5010777;28;20224;-82
2022/07/09 00:12:00;;;;;;;8.65;5.13;;;18.90;99.90;;;;;;4983875;28;20679;-82
2022/07/09 00:14:29;;;;;;;5.45;4.95;;;18.90;99.90;;;;;;4982286;28;20205;-82
2022/07/09 00:16:57;;;;;;;5.43;4.93;;;18.80;99.90;;;;;;4980345;28;20202;-82
2022/07/09 00:19:24;;;;;;;6.53;4.63;;;18.60;99.90;;;;;;4989445;28;20232;-82
2022/07/09 00:21:51;;;;;;;5.75;4.50;;;18.50;99.90;;;;;;5005766;28;20574;-82
2022/07/09 00:24:20;;;;;;;5.25;4.47;;;18.50;99.90;;;;;;4991579;28;20223;-82
2022/07/09 00:26:48;;;;;;;5.68;4.97;;;18.50;99.90;;;;;;4986220;28;20202;-82
2022/07/09 00:29:15;;;;;;;6.38;4.88;;;18.40;99.90;;;;;;4990650;28;20221;-82
2022/07/09 00:31:45;;;;;;;8.02;5.05;;;18.40;99.90;;;;;;4985459;28;20211;-82
2022/07/09 00:34:13;;;;;;;5.43;4.82;;;18.40;99.90;;;;;;4988331;28;20200;-82
2022/07/09 00:36:40;;;;;;;5.30;4.80;;;18.30;99.90;;;;;;4979440;28;20189;-82
2022/07/09 00:39:08;;;;;;;6.50;5.05;;;18.30;99.90;;;;;;4973601;28;20224;-82
2022/07/09 00:41:37;;;;;;;5.30;4.72;;;18.40;99.90;;;;;;4994728;28;20200;-82
2022/07/09 00:44:04;;;;;;;6.10;5.43;;;18.40;99.90;;;;;;4995019;28;20198;-81
2022/07/09 00:46:32;;;;;;;5.32;4.93;;;18.30;99.90;;;;;;4974046;28;20201;-82
2022/07/09 00:49:03;;;;;;;5.80;5.22;;;18.30;99.90;;;;;;4978868;28;20225;-82
2022/07/09 00:51:31;;;;;;;5.30;4.80;;;18.30;99.90;;;;;;4973085;28;20200;-82
2022/07/09 00:54:01;;;;;;;7.68;5.38;;;18.40;99.90;;;;;;4978879;28;20205;-82
2022/07/09 00:56:29;;;;;;;5.78;5.15;;;18.30;99.90;;;;;;4989902;28;20209;-82
2022/07/09 00:58:59;;;;;;;8.07;5.80;;;18.20;99.90;;;;;;4983512;28;20236;-82
2022/07/09 01:01:27;;;;;;;7.75;6.20;;;18.10;99.90;;;;;;4974824;28;20217;-82
2022/07/09 01:03:54;;;;;;;7.75;6.05;;;18.10;99.90;;;;;;4978121;28;20201;-82
2022/07/09 01:06:22;;;;;;;6.68;6.05;;;18.10;99.90;;;;;;4981583;28;20209;-82
2022/07/09 01:08:49;;;;;;;7.22;6.18;;;18.20;99.90;;;;;;4975098;28;20236;-82
2022/07/09 01:11:17;;;;;;;6.40;5.80;;;18.10;99.90;;;;;;4982219;28;20208;-82
2022/07/09 01:13:45;;;;;;;6.43;5.07;;;18.10;99.90;;;;;;4986701;28;20576;-82
2022/07/09 01:16:15;;;;;;;7.05;5.53;;;18.10;99.90;;;;;;4993056;28;20201;-82
2022/07/09 01:18:44;;;;;;;9.48;5.55;;;18.10;99.90;;;;;;4965215;28;20232;-82
2022/07/09 01:21:14;;;;;;;5.97;5.38;;;18.10;99.90;;;;;;4981288;28;20224;-82
2022/07/09 01:23:41;;;;;;;6.00;5.30;;;18.00;99.90;;;;;;4979518;28;20205;-82
2022/07/09 01:26:09;;;;;;;7.35;5.57;;;18.10;99.90;;;;;;4976431;28;20204;-82
2022/07/09 01:28:36;;;;;;;6.63;5.93;;;18.10;99.90;;;;;;5002326;28;20563;-82
2022/07/09 01:31:04;;;;;;;7.30;5.38;;;18.10;99.90;;;;;;4980276;28;20228;-82
2022/07/09 01:33:33;;;;;;;6.40;5.80;;;18.00;99.90;;;;;;4977947;28;20207;-82
2022/07/09 01:36:00;;;;;;;6.53;5.88;;;18.00;99.90;;;;;;4986229;28;20231;-82
2022/07/09 01:38:30;;;;;;;8.35;5.35;;;18.10;99.90;;;;;;4999913;28;20208;-82
2022/07/09 01:40:57;;;;;;;6.00;5.10;;;18.00;99.90;;;;;;5011907;28;20227;-82
2022/07/09 01:43:25;;;;;;;6.93;4.95;;;17.90;99.90;;;;;;4970061;28;20196;-82
2022/07/09 01:45:52;;;;;;;7.10;5.65;;;17.90;99.90;;;;;;4988125;28;20593;-82
2022/07/09 01:48:20;;;;;;;5.90;5.38;;;17.90;99.90;;;;;;4984451;28;20197;-83
2022/07/09 01:50:47;;;;;;;6.28;5.18;;;17.90;99.90;;;;;;4993291;28;20204;-82
2022/07/09 01:53:15;;;;;;;6.00;5.40;;;18.00;99.90;;;;;;5006499;23;20229;-80
2022/07/09 01:55:44;;;;;;;6.30;5.68;;;17.90;99.90;;;;;;4984546;28;20215;-80
2022/07/09 01:58:11;;;;;;;7.53;6.82;;;18.00;99.90;;;;;;4984064;28;20211;-80
2022/07/09 02:00:39;;;;;;;6.70;6.10;;;18.10;99.90;;;;;;4998004;28;20235;-80
2022/07/09 02:03:06;;;;;;;7.88;6.20;;;18.20;99.90;;;;;;4999911;28;20232;-80
2022/07/09 02:05:34;;;;;;;7.85;5.78;;;18.20;99.90;;;;;;4997823;28;20200;-80
2022/07/09 02:08:01;;;;;;;8.13;6.25;;;17.80;99.90;;;;;;4998368;28;20211;-80
2022/07/09 02:10:30;;;;;;;7.88;6.75;;;17.60;99.90;;;;;;4981689;28;20207;-80
2022/07/09 02:12:59;;;;;;;7.70;5.90;;;17.60;99.90;;;;;;4978815;28;20240;-80
2022/07/09 02:15:26;;;;;;;6.25;5.65;;;17.70;99.90;;;;;;4977216;28;20204;-80
2022/07/09 02:17:56;;;;;;;7.65;5.93;;;17.70;99.90;;;;;;5001971;28;20673;-80
2022/07/09 02:20:24;;;;;;;8.13;5.82;;;17.60;99.90;;;;;;4999229;28;20220;-80
2022/07/09 02:22:52;;;;;;;6.30;5.70;;;17.70;99.90;;;;;;5001031;28;20228;-80
2022/07/09 02:25:19;;;;;;;7.28;6.57;;;17.80;99.90;;;;;;5000262;28;20224;-80
2022/07/09 02:27:47;;;;;;;8.15;6.15;;;17.80;99.90;;;;;;4991797;28;20220;-80
2022/07/09 02:30:16;;;;;;;7.50;6.32;;;17.70;99.90;;;;;;4992448;28;20690;-80
2022/07/09 02:32:43;;;;;;;7.32;6.40;;;17.70;99.90;;;;;;5000937;28;20208;-80
2022/07/09 02:35:11;;;;;;;7.55;6.85;;;17.60;99.90;;;;;;4983513;28;20189;-80
2022/07/09 02:37:38;;;;;;;9.40;6.60;;;17.70;99.90;;;;;;4983985;28;20197;-80
2022/07/09 02:40:07;;;;;;;9.70;6.40;;;17.70;99.90;;;;;;4983707;28;20200;-80
2022/07/09 02:42:36;;;;;;;9.20;6.40;;;17.70;99.90;;;;;;4992525;28;20212;-80
2022/07/09 02:45:04;;;;;;;8.00;6.80;;;17.70;99.90;;;;;;4996089;28;20208;-80
2022/07/09 02:47:33;;;;;;;9.10;7.00;;;17.70;99.90;;;;;;4984744;28;20201;-80
2022/07/09 02:50:00;;;;;;;9.85;7.03;;;17.60;99.90;;;;;;4984266;28;20207;-80
2022/07/09 02:52:28;;;;;;;8.68;7.25;;;17.60;99.90;;;;;;4997048;28;20195;-80
2022/07/09 02:54:55;;;;;;;8.40;7.57;;;17.60;99.90;;;;;;5004430;28;20211;-80
2022/07/09 02:57:23;;;;;;;9.30;7.10;;;17.70;99.90;;;;;;5001373;28;20216;-80
2022/07/09 02:59:50;;;;;;;7.35;6.57;;;17.80;99.90;;;;;;5000791;28;20580;-80
2022/07/09 03:02:17;;;;;;;10.40;7.55;;;17.70;99.90;;;;;;4998348;28;20221;-80
2022/07/09 03:04:46;;;;;;;7.78;7.05;;;17.80;99.90;;;;;;5003487;28;20239;-80
2022/07/09 03:07:14;;;;;;;8.48;7.55;;;17.80;99.90;;;;;;5003385;28;20207;-80
2022/07/09 03:09:42;;;;;;;8.27;7.47;;;17.80;99.90;;;;;;5003337;28;20208;-80
2022/07/09 03:12:10;;;;;;;7.65;6.93;;;17.80;99.90;;;;;;5004181;28;20589;-80
2022/07/09 03:14:37;;;;;;;9.00;7.70;;;17.80;99.90;;;;;;4983627;28;20221;-82
2022/07/09 03:17:05;;;;;;;11.43;7.38;;;17.70;99.90;;;;;;4986168;28;20687;-82
2022/07/09 03:19:33;;;;;;;7.30;6.63;;;17.70;99.90;;;;;;4999138;28;20201;-82
2022/07/09 03:22:02;;;;;;;10.45;6.63;;;17.80;99.90;;;;;;4996134;28;20236;-82
2022/07/09 03:24:29;;;;;;;8.27;7.47;;;17.80;99.90;;;;;;4997879;28;20240;-82
2022/07/09 03:26:57;;;;;;;9.43;7.20;;;17.90;99.90;;;;;;5005239;28;20539;-82
2022/07/09 03:29:24;;;;;;;8.07;7.25;;;17.90;99.90;;;;;;5003783;28;20200;-82
2022/07/09 03:31:52;;;;;;;9.90;7.65;;;17.80;99.90;;;;;;5003641;28;20550;-82
2022/07/09 03:34:20;;;;;;;7.90;7.10;;;17.80;99.90;;;;;;5004690;28;20220;-82
2022/07/09 03:36:48;;;;;;;9.52;6.93;;;17.80;99.90;;;;;;4985302;28;20215;-82
2022/07/09 03:39:17;;;;;;;7.93;6.72;;;17.80;99.90;;;;;;4988920;28;20207;-82
2022/07/09 03:41:44;;;;;;;8.35;7.10;;;17.80;99.90;;;;;;5004697;28;20228;-82
2022/07/09 03:44:12;;;;;;;8.40;7.03;;;17.80;99.90;;;;;;5004438;28;20217;-82
2022/07/09 03:46:39;;;;;;;8.00;7.15;;;17.90;99.90;;;;;;5003973;28;20205;-82
2022/07/09 03:49:07;;;;;;;9.32;7.25;;;17.90;99.90;;;;;;4995106;28;20205;-82
2022/07/09 03:51:34;;;;;;;9.57;7.80;;;17.90;99.90;;;;;;4988036;28;20211;-82
2022/07/09 03:54:02;;;;;;;8.02;6.93;;;17.90;99.90;;;;;;4985764;28;20236;-82
2022/07/09 03:56:31;;;;;;;9.75;7.18;;;17.90;99.90;;;;;;5004133;28;20709;-82
2022/07/09 03:58:58;;;;;;;9.23;7.70;;;17.90;99.90;;;;;;4984215;28;20216;-82
2022/07/09 04:01:26;;;;;;;11.60;8.45;;;17.80;99.90;;;;;;4986915;28;20231;-82
2022/07/09 04:03:53;;;;;;;8.60;7.80;;;17.80;99.90;;;;;;4986369;28;20220;-82
2022/07/09 04:06:21;;;;;;;9.48;7.20;;;17.80;99.90;;;;;;4986456;28;20204;-82
2022/07/09 04:08:48;;;;;;;9.23;7.68;;;17.80;99.90;;;;;;5003480;28;20204;-82
2022/07/09 04:11:16;;;;;;;11.70;7.97;;;17.80;99.90;;;;;;4994952;28;20200;-82
2022/07/09 04:13:45;;;;;;;9.32;7.95;;;17.80;99.90;;;;;;4997284;28;20225;-82
2022/07/09 04:16:12;;;;;;;8.02;7.03;;;17.90;99.90;;;;;;5002521;28;20205;-82
2022/07/09 04:18:43;;;;;;;8.35;7.07;;;18.00;99.90;;;;;;4980284;28;20200;-82
2022/07/09 04:21:11;;;;;;;7.07;6.35;;;18.10;99.90;;;;;;4978208;28;20212;-82
2022/07/09 04:23:38;;;;;;;8.55;6.38;;;18.20;99.90;;;;;;4995438;28;20220;-82
2022/07/09 04:26:06;;;;;;;8.32;6.60;;;18.20;99.90;;;;;;4978591;28;20212;-82
2022/07/09 04:28:36;;;;;;;8.52;7.57;;;18.30;99.90;;;;;;4982988;28;20201;-82
2022/07/09 04:31:05;;;;;;;10.30;7.20;;;18.40;99.90;;;;;;4984375;28;20288;-82
2022/07/09 04:33:33;;;;;;;9.98;7.63;;;18.30;99.90;;;;;;4984869;28;20224;-82
2022/07/09 04:36:01;;;;;;;7.40;6.70;;;18.20;99.90;;;;;;4985744;28;20215;-82
2022/07/09 04:38:28;;;;;;;7.57;6.72;;;18.40;99.90;;;;;;5002076;28;20211;-82
2022/07/09 04:40:56;;;;;;;9.55;7.40;;;18.30;99.90;;;;;;4987140;28;20192;-82
2022/07/09 04:43:23;;;;;;;9.65;6.75;;;18.40;99.90;;;;;;4993229;28;20235;-82
2022/07/09 04:45:51;;;;;;;6.85;6.13;;;18.50;99.90;;;;;;4995326;28;20215;-82
2022/07/09 04:48:20;;;;;;;8.23;6.25;;;18.50;99.90;;;;;;4985869;28;20204;-82
2022/07/09 04:50:47;;;;;;;9.88;6.85;;;18.40;99.90;;;;;;5001413;28;20212;-82
2022/07/09 04:53:15;;;;;;;7.60;6.78;;;18.40;99.90;;;;;;4998068;28;20221;-82
2022/07/09 04:55:42;;;;;;;8.68;6.97;;;18.50;99.90;;;;;;5003507;28;20204;-82
2022/07/09 04:58:10;;;;;;;10.73;6.70;;;18.50;99.90;;;;;;5003191;28;20204;-82
2022/07/09 05:00:38;;;;;;;9.50;7.10;;;18.70;99.90;;;;;;4991272;28;20721;-82
2022/07/09 05:03:06;;;;;;;9.93;7.28;;;18.70;99.90;;;;;;4990492;28;20236;-82
2022/07/09 05:05:35;;;;;;;8.35;7.63;;;18.50;99.90;;;;;;4983716;28;20200;-82
2022/07/09 05:08:03;;;;;;;8.85;7.20;;;18.60;99.90;;;;;;5005199;28;20202;-82
2022/07/09 05:10:30;;;;;;;12.32;8.57;;;18.60;99.90;;;;;;4986059;28;20284;-82
2022/07/09 05:12:58;;;;;;;12.43;8.43;;;18.50;99.90;;;;;;5002961;28;20227;-82
2022/07/09 05:15:25;;;;;;;9.50;8.50;;;18.40;99.90;;;;;;4999016;28;20207;-83
2022/07/09 05:17:53;;;;;;;10.45;8.82;;;18.40;99.90;;;;;;4993393;28;20200;-82
2022/07/09 05:20:20;;;;;;;11.25;8.20;;;18.50;99.90;;;;;;4989108;28;20227;-82
2022/07/09 05:22:49;;;;;;;9.50;8.27;;;18.60;99.90;;;;;;4990922;28;20235;-82
2022/07/09 05:25:17;;;;;;;8.10;7.28;;;18.60;99.90;;;;;;4991670;28;20211;-83
2022/07/09 05:27:45;;;;;;;8.52;6.95;;;18.60;99.90;;;;;;4991717;28;20204;-83
2022/07/09 05:30:14;;;;;;;7.60;6.68;;;18.60;99.90;;;;;;4983631;28;20208;-84
2022/07/09 05:32:43;;;;;;;9.52;6.55;;;18.60;99.90;;;;;;4972294;28;20197;-83
2022/07/09 05:35:11;;;;;;;7.60;6.35;;;18.50;99.90;;;;;;4975459;28;20220;-83
2022/07/09 05:37:42;;;;;;;9.38;6.60;;;18.70;99.90;;;;;;4999808;28;20196;-82
2022/07/09 05:40:13;;;;;;;8.35;6.15;;;18.70;99.90;;;;;;5008450;28;20207;-82
2022/07/09 05:42:40;;;;;;;8.07;5.68;;;18.70;99.90;;;;;;5008482;28;20232;-82
2022/07/09 05:45:09;;;;;;;10.60;5.88;;;18.50;99.90;;;;;;5008116;28;20212;-82
2022/07/09 05:47:37;;;;;;;5.75;5.03;;;18.50;99.90;;;;;;5008043;28;20200;-82
2022/07/09 05:50:05;;;;;;;6.20;4.95;;;18.40;99.90;;;;;;4973073;28;20654;-82
2022/07/09 05:52:32;;;;;;;7.05;4.07;;;18.50;99.90;;;;;;4972626;28;20654;-81
2022/07/09 05:55:00;;;;;;;8.98;4.95;;;18.50;99.90;;;;;;4980965;28;20219;-82
2022/07/09 05:57:29;;;;;;;11.65;5.28;;;19.00;99.90;;;;;;4981244;28;20204;-82
2022/07/09 05:59:56;;;;;;;10.27;5.57;;;19.00;99.90;;;;;;4973012;28;20203;-82
2022/07/09 06:02:24;;;;;;;4.75;3.70;;;19.30;99.90;;;;;;4988799;28;20215;-81
2022/07/09 06:04:52;;;;;;;5.13;3.00;;;19.00;99.90;;;;;;4984061;28;20232;-82
2022/07/09 06:07:21;;;;;;;4.85;3.13;;;19.20;99.90;;;;;;4985171;28;20200;-82
2022/07/09 06:09:49;;;;;;;6.10;3.42;;;19.40;99.90;;;;;;4976215;28;20200;-82
2022/07/09 06:12:16;;;;;;;4.47;3.17;;;19.30;99.90;;;;;;4990465;28;20209;-82
2022/07/09 06:14:45;;;;;;;4.68;3.35;;;19.50;99.90;;;;;;4973240;28;20686;-82
2022/07/09 06:17:13;;;;;;;4.32;3.10;;;19.70;99.90;;;;;;4972090;28;20196;-82
2022/07/09 06:19:40;;;;;;;3.53;2.83;;;19.90;99.90;;;;;;4976402;28;20212;-82
2022/07/09 06:22:08;;;;;;;3.67;3.13;;;19.90;99.90;;;;;;4971314;28;20219;-81
2022/07/09 06:24:35;;;;;;;5.05;3.28;;;19.90;99.90;;;;;;4971310;28;20224;-82
2022/07/09 06:27:03;;;;;;;3.97;3.00;;;20.00;99.90;;;;;;4990814;28;20561;-82
2022/07/09 06:29:31;;;;;;;3.17;2.80;;;20.10;99.90;;;;;;4974731;28;21001;-82
2022/07/09 06:32:00;;;;;;;4.43;3.15;;;20.10;99.90;;;;;;4993542;28;20215;-82
2022/07/09 06:34:28;;;;;;;4.13;3.47;;;20.10;99.90;;;;;;4982907;28;20225;-82
2022/07/09 06:36:55;;;;;;;5.50;3.65;;;20.20;99.90;;;;;;4990749;28;20196;-83
2022/07/09 06:42:08;;;;;;;4.28;3.88;;;20.10;99.90;;;;;;4972632;28;20316;-84
2022/07/09 06:44:38;;;;;;;5.97;4.55;;;19.90;99.90;;;;;;4990699;28;20752;-84
2022/07/09 06:47:07;;;;;;;7.03;4.40;;;19.90;99.90;;;;;;4994052;28;20212;-85
2022/07/09 06:49:38;;;;;;;5.63;4.40;;;20.00;99.90;;;;;;4979129;28;20212;-85
2022/07/09 06:52:07;;;;;;;5.88;4.68;;;19.90;99.90;;;;;;4976191;28;20208;-82
2022/07/09 06:54:35;;;;;;;5.45;4.50;;;20.00;99.90;;;;;;4992872;28;20228;-83
2022/07/09 06:57:03;;;;;;;5.85;4.55;;;20.00;99.90;;;;;;4993911;28;20662;-83
2022/07/09 06:59:31;;;;;;;4.85;3.63;;;20.30;99.90;;;;;;4993741;28;20211;-83
2022/07/09 07:01:58;;;;;;;4.80;4.00;;;20.30;99.90;;;;;;4994779;28;20205;-81
2022/07/09 07:04:28;;;;;;;5.43;4.00;;;20.50;99.90;;;;;;4992912;28;20232;-83
2022/07/09 07:06:55;;;;;;;6.70;5.03;;;20.70;99.90;;;;;;4993698;28;20200;-83
2022/07/09 07:09:23;;;;;;;5.70;4.88;;;20.20;99.90;;;;;;4991736;28;20603;-83
2022/07/09 07:11:51;;;;;;;4.93;4.18;;;20.30;99.90;;;;;;4992747;28;20207;-83
2022/07/09 07:14:19;;;;;;;4.35;3.97;;;20.50;99.90;;;;;;4994532;28;20217;-83
2022/07/09 07:16:46;;;;;;;5.85;3.63;;;20.40;99.90;;;;;;4992098;28;20211;-83
2022/07/09 07:19:14;;;;;;;4.53;4.05;;;20.50;99.90;;;;;;4992570;28;20223;-82
2022/07/09 07:21:42;;;;;;;3.53;3.22;;;20.50;99.90;;;;;;4994771;28;20208;-83
2022/07/09 07:24:10;;;;;;;5.40;4.43;;;20.70;99.90;;;;;;4974079;28;20247;-84
2022/07/09 07:26:40;;;;;;;4.63;3.50;;;20.80;99.90;;;;;;4980989;28;20201;-82
2022/07/09 07:29:08;;;;;;;4.68;3.03;;;20.80;99.90;;;;;;4999584;28;20215;-82
2022/07/09 07:31:35;;;;;;;3.38;2.83;;;20.80;99.90;;;;;;4997742;28;20223;-82
2022/07/09 07:34:03;;;;;;;5.75;3.92;;;20.80;99.90;;;;;;4998742;28;20220;-82
2022/07/09 07:36:34;;;;;;;4.10;3.50;;;20.60;99.90;;;;;;4980703;28;20193;-82
2022/07/09 07:39:03;;;;;;;3.45;3.17;;;20.50;99.90;;;;;;4971968;28;20204;-82
2022/07/09 07:41:31;;;;;;;3.70;3.28;;;20.60;99.90;;;;;;4978443;28;20200;-82
2022/07/09 07:43:58;;;;;;;4.60;3.00;;;20.90;99.90;;;;;;4994863;28;20587;-82
2022/07/09 07:46:32;;;;;;;4.50;3.10;;;21.10;99.90;;;;;;4990675;28;20208;-82
2022/07/09 07:49:17;;;;;;;3.28;2.90;;;20.90;99.90;;;;;;4987478;28;20208;-82
2022/07/09 07:51:45;;;;;;;3.45;3.15;;;20.90;99.90;;;;;;4976926;28;20211;-82
2022/07/09 07:54:14;;;;;;;2.70;2.50;;;20.90;99.90;;;;;;4981671;28;20221;-82
2022/07/09 07:56:42;;;;;;;3.13;2.60;;;20.90;99.90;;;;;;4971692;28;20199;-82
2022/07/09 07:59:09;;;;;;;4.00;2.60;;;21.00;99.90;;;;;;4974331;28;20537;-82
2022/07/09 08:01:37;;;;;;;2.85;2.42;;;20.80;99.90;;;;;;4974862;28;20201;-83
2022/07/09 08:04:05;;;;;;;3.47;2.08;;;21.00;99.90;;;;;;4977078;28;20220;-82
2022/07/09 08:06:32;;;;;;;3.50;2.50;;;21.00;99.90;;;;;;4974899;28;20613;-82
2022/07/09 08:09:00;;;;;;;5.05;2.20;;;20.80;99.90;;;;;;4971353;28;20197;-82
2022/07/09 08:11:29;;;;;;;3.08;2.25;;;20.80;99.90;;;;;;4974539;28;20209;-82
2022/07/09 08:13:56;;;;;;;4.43;2.10;;;20.70;99.90;;;;;;4972478;28;20221;-82
2022/07/09 08:16:24;;;;;;;3.03;1.88;;;20.80;99.90;;;;;;4992174;28;20197;-82
2022/07/09 08:18:53;;;;;;;2.75;2.08;;;21.00;99.90;;;;;;4992394;28;20204;-82
2022/07/09 08:21:21;;;;;;;2.33;2.00;;;21.00;99.90;;;;;;4973599;28;20215;-82
2022/07/09 08:24:00;;;;;;;2.17;1.88;;;21.10;99.90;;;;;;4992175;28;20243;-82
2022/07/09 08:26:29;;;;;;;3.85;2.50;;;21.20;99.90;;;;;;4971478;28;20200;-82
2022/07/09 08:29:02;;;;;;;3.45;2.22;;;21.30;99.90;;;;;;4992764;28;20662;-82
2022/07/09 08:31:30;;;;;;;3.90;2.25;;;21.10;99.90;;;;;;4991899;28;20215;-82
2022/07/09 08:33:59;;;;;;;2.60;2.05;;;21.20;99.90;;;;;;4970803;28;20231;-83
2022/07/09 08:36:27;;;;;;;2.25;1.70;;;21.30;99.90;;;;;;4973015;28;20204;-81
2022/07/09 08:38:54;;;;;;;4.85;1.88;;;21.30;99.90;;;;;;4972043;28;20205;-83
2022/07/09 08:41:24;;;;;;;2.38;1.33;;;21.40;99.90;;;;;;4977921;28;20554;-81
2022/07/09 08:43:54;;;;;;;2.28;1.30;;;21.30;99.90;;;;;;4975470;28;20220;-81
2022/07/09 08:46:22;;;;;;;1.77;1.30;;;21.50;99.90;;;;;;4991961;28;20208;-81
2022/07/09 08:48:50;;;;;;;2.03;1.20;;;21.70;99.90;;;;;;4977488;28;20612;-82
2022/07/09 08:51:19;;;;;;;1.63;1.23;;;21.80;99.90;;;;;;4972507;28;20200;-82
2022/07/09 08:53:47;;;;;;;1.98;1.35;;;21.70;99.90;;;;;;4973241;28;20232;-80
2022/07/09 08:56:14;;;;;;;1.50;0.98;;;21.70;99.90;;;;;;4989987;28;20207;-81
2022/07/09 08:58:45;;;;;;;1.85;1.40;;;21.50;99.90;;;;;;4971834;28;20219;-82
2022/07/09 09:01:17;;;;;;;1.25;1.13;;;21.40;99.90;;;;;;4991373;28;20208;-82
2022/07/09 09:03:45;;;;;;;2.33;1.20;;;21.50;99.90;;;;;;4973802;28;20224;-83
2022/07/09 09:06:14;;;;;;;1.52;1.30;;;21.50;99.90;;;;;;4972706;28;20204;-83
2022/07/09 09:08:43;;;;;;;2.00;1.30;;;21.60;99.90;;;;;;4975791;28;20208;-82
2022/07/09 09:11:15;;;;;;;1.92;1.52;;;21.60;99.90;;;;;;4982466;28;20204;-82
2022/07/09 09:13:43;;;;;;;3.70;1.30;;;21.80;99.90;;;;;;4959768;28;20233;-83
2022/07/09 09:16:13;;;;;;;1.75;1.30;;;22.00;99.90;;;;;;4986712;28;20196;-82
2022/07/09 09:18:43;;;;;;;2.92;1.60;;;21.80;99.90;;;;;;4973793;28;20204;-82
2022/07/09 09:21:12;;;;;;;3.45;1.38;;;21.80;99.90;;;;;;4975613;28;20200;-82
2022/07/09 09:23:43;;;;;;;2.65;1.30;;;22.00;99.90;;;;;;4985369;28;20227;-82
2022/07/09 09:26:16;;;;;;;2.72;1.25;;;22.10;99.90;;;;;;4972599;28;20201;-82
2022/07/09 09:28:52;;;;;;;2.53;1.45;;;22.10;99.90;;;;;;4972583;28;20286;-81
2022/07/09 09:31:23;;;;;;;2.40;1.60;;;21.90;99.90;;;;;;4979365;28;20208;-82
2022/07/09 09:33:54;;;;;;;2.38;1.48;;;22.00;99.90;;;;;;4984960;28;20220;-84
2022/07/09 09:36:33;;;;;;;1.63;1.20;;;21.80;99.60;;;;;;4974111;28;20715;-82
2022/07/09 09:39:12;;;;;;;3.03;1.70;;;21.80;99.90;;;;;;4984912;28;20207;-81
2022/07/09 09:41:41;;;;;;;2.78;1.63;;;21.90;99.90;;;;;;4986677;28;20212;-82
2022/07/09 09:44:10;;;;;;;3.25;1.50;;;21.90;99.90;;;;;;4972053;28;20220;-82
2022/07/09 09:46:39;;;;;;;3.85;1.50;;;21.90;99.50;;;;;;4973815;28;20215;-82
2022/07/09 09:49:10;;;;;;;2.17;1.40;;;21.80;99.60;;;;;;4973861;28;20563;-80
2022/07/09 09:51:51;;;;;;;2.25;1.60;;;21.80;99.90;;;;;;4978598;28;20202;-80
2022/07/09 09:54:20;;;;;;;3.95;1.63;;;21.90;99.90;;;;;;4987024;28;20233;-81
2022/07/09 09:56:48;;;;;;;2.28;1.58;;;22.00;99.90;;;;;;4991780;28;20204;-82
2022/07/09 09:59:16;;;;;;;3.42;1.98;;;21.90;99.90;;;;;;4975275;28;20633;-82
2022/07/09 10:01:47;;;;;;;3.55;1.60;;;22.00;99.90;;;;;;4994999;28;20200;-80
2022/07/09 10:04:16;;;;;;;3.58;2.00;;;22.10;99.90;;;;;;5006047;28;20231;-81
2022/07/09 10:06:44;;;;;;;2.13;1.70;;;22.00;99.90;;;;;;4993877;28;20216;-80
2022/07/09 10:09:16;;;;;;;2.30;1.58;;;22.10;99.90;;;;;;5007546;28;20200;-81
2022/07/09 10:11:45;;;;;;;2.28;1.48;;;22.20;99.60;;;;;;4979683;28;20215;-81
2022/07/09 10:14:18;;;;;;;4.07;1.80;;;22.20;98.50;;;;;;4993966;28;20231;-81
2022/07/09 10:16:45;;;;;;;2.75;1.70;;;22.10;98.90;;;;;;4978984;28;20204;-81
2022/07/09 10:19:25;;;;;;;2.97;2.03;;;22.20;99.10;;;;;;4993182;28;20674;-81
2022/07/09 10:21:53;;;;;;;3.72;1.75;;;22.20;99.30;;;;;;4974257;28;20197;-81
2022/07/09 10:24:25;;;;;;;2.75;1.60;;;22.20;99.60;;;;;;4980922;28;20232;-81
2022/07/09 10:26:53;;;;;;;2.47;1.70;;;22.20;99.40;;;;;;4977466;28;20219;-81
2022/07/09 10:29:22;;;;;;;2.08;1.40;;;22.20;99.90;;;;;;4972294;28;20715;-81
2022/07/09 10:31:50;;;;;;;2.42;1.40;;;22.30;99.80;;;;;;4974128;28;20212;-81
2022/07/09 10:34:37;;;;;;;2.35;1.40;;;22.30;98.50;;;;;;4991626;28;20212;-81
2022/07/09 10:37:06;;;;;;;2.03;1.38;;;22.30;99.00;;;;;;4972430;28;20205;-81
2022/07/09 10:39:34;;;;;;;1.50;1.20;;;22.40;98.90;;;;;;4977589;28;20207;-81
2022/07/09 10:42:03;;;;;;;1.40;1.30;;;22.30;98.30;;;;;;4991157;28;20211;-81
2022/07/09 10:44:36;;;;;;;2.83;1.30;;;22.30;98.90;;;;;;4985837;28;20221;-81
2022/07/09 10:47:04;;;;;;;1.70;1.40;;;22.30;98.40;;;;;;4973384;28;20196;-81
2022/07/09 10:49:36;;;;;;;3.13;1.77;;;22.30;98.80;;;;;;4977490;28;20208;-81
2022/07/09 10:52:04;;;;;;;3.05;1.80;;;22.20;98.80;;;;;;4985875;28;20663;-79
2022/07/09 10:54:32;;;;;;;2.40;1.40;;;22.30;99.30;;;;;;4992469;28;20220;-80
2022/07/09 10:57:00;;;;;;;3.75;2.00;;;22.20;99.10;;;;;;4975277;28;20203;-80
2022/07/09 10:59:28;;;;;;;3.58;2.00;;;22.20;99.50;;;;;;4982732;28;20201;-80
2022/07/09 11:01:55;;;;;;;3.95;1.98;;;22.40;99.40;;;;;;4991218;28;20215;-79
2022/07/09 11:04:30;;;;;;;2.92;1.70;;;22.50;99.30;;;;;;4994262;28;20220;-83
2022/07/09 11:06:59;;;;;;;2.33;1.80;;;22.70;98.80;;;;;;4991101;28;20199;-83
2022/07/09 11:09:30;;;;;;;3.05;1.40;;;22.80;97.90;;;;;;4992938;28;20204;-83
2022/07/09 11:11:58;;;;;;;1.77;1.20;;;22.70;97.30;;;;;;4993396;28;20226;-83
2022/07/09 11:14:26;;;;;;;1.98;1.20;;;23.00;97.30;;;;;;4976886;28;20216;-81
2022/07/09 11:16:58;;;;;;;1.10;1.00;;;22.90;97.40;;;;;;4976595;28;20204;-82
2022/07/09 11:19:26;;;;;;;1.48;1.38;;;22.90;97.50;;;;;;4991422;28;20211;-82
2022/07/09 11:22:04;;;;;;;1.98;1.38;;;22.90;96.80;;;;;;4989572;28;20208;-83
2022/07/09 11:24:32;;;;;;;1.60;1.30;;;23.00;97.00;;;;;;4991314;28;20227;-83
2022/07/09 11:27:03;;;;;;;1.85;1.20;;;23.20;96.70;;;;;;4992323;28;20215;-82
2022/07/09 11:29:31;;;;;;;1.83;1.50;;;23.20;96.60;;;;;;4983977;28;20196;-82
2022/07/09 11:31:58;;;;;;;1.67;1.48;;;23.20;96.50;;;;;;4964973;28;20205;-83
2022/07/09 11:34:26;;;;;;;1.58;1.48;;;23.30;96.00;;;;;;4991404;28;20581;-85
2022/07/09 11:36:58;;;;;;;2.35;1.70;;;23.50;95.70;;;;;;4975380;28;20215;-83
2022/07/09 11:39:29;;;;;;;1.70;1.60;;;23.60;95.00;;;;;;4989560;28;20201;-82
2022/07/09 11:41:58;;;;;;;3.63;1.50;;;23.30;95.80;;;;;;4975687;28;20211;-82
2022/07/09 11:44:27;;;;;;;2.58;1.80;;;23.10;96.40;;;;;;4973652;28;20316;-83
2022/07/09 11:47:02;;;;;;;2.33;1.73;;;23.20;96.50;;;;;;4991593;28;20243;-83
2022/07/09 11:49:38;;;;;;;2.30;2.10;;;23.10;96.90;;;;;;4972517;28;20228;-83
2022/07/09 11:52:17;;;;;;;3.60;2.50;;;23.00;97.50;;;;;;4972427;28;20557;-84
2022/07/09 11:54:57;;;;;;;4.55;2.30;;;22.90;97.60;;;;;;4974924;28;20231;-84
2022/07/09 11:57:25;;;;;;;2.13;2.00;;;22.70;97.80;;;;;;4990657;28;20204;-84
2022/07/09 11:59:53;;;;;;;2.03;1.90;;;22.70;98.00;;;;;;4986800;28;20212;-82
2022/07/09 12:02:25;;;;;;;3.15;2.00;;;22.60;98.40;;;;;;4986387;28;20228;-82
2022/07/09 12:04:52;;;;;;;3.58;2.25;;;22.60;98.30;;;;;;4973528;28;20228;-82
2022/07/09 12:07:20;;;;;;;2.13;1.83;;;22.40;98.40;;;;;;4990429;28;20215;-82
2022/07/09 12:09:58;;;;;;;2.50;1.70;;;22.30;98.80;;;;;;4980003;28;20215;-82
2022/07/09 12:12:27;;;;;;;2.55;1.80;;;22.30;99.10;;;;;;4973153;28;20200;-82
2022/07/09 12:14:55;;;;;;;2.25;1.77;;;22.40;99.10;;;;;;4992653;28;20266;-82
2022/07/09 12:17:29;;;;;;;2.47;1.83;;;22.70;99.40;;;;;;4990344;28;20288;-83
2022/07/09 12:19:57;;;;;;;3.35;1.92;;;23.10;98.30;;;;;;4976753;28;20200;-83
2022/07/09 12:22:26;;;;;;;1.77;1.42;;;23.30;98.60;;;;;;4988995;28;20216;-82
2022/07/09 12:24:54;;;;;;;3.67;1.80;;;23.20;98.00;;;;;;4975088;28;20224;-83
2022/07/09 12:27:21;;;;;;;2.42;1.67;;;23.00;98.30;;;;;;4975491;28;20204;-83
2022/07/09 12:29:50;;;;;;;3.92;2.22;;;23.00;98.20;;;;;;4976596;28;20196;-82
2022/07/09 12:32:19;;;;;;;2.40;1.95;;;22.80;98.80;;;;;;4976614;28;20201;-82
2022/07/09 12:34:46;;;;;;;2.05;1.85;;;22.80;99.20;;;;;;4992138;28;20215;-82
2022/07/09 12:37:14;;;;;;;2.80;2.00;;;22.60;99.80;;;;;;4989565;28;20200;-83
2022/07/09 12:39:41;;;;;;;2.35;1.90;;;22.40;99.90;;;;;;4977991;28;20201;-83
2022/07/09 12:42:13;;;;;;;2.70;2.42;;;22.30;99.90;;;;;;4976121;28;20204;-83
2022/07/09 12:44:40;;;;;;;2.75;2.55;;;22.10;99.90;;;;;;4988902;28;20597;-83
2022/07/09 12:47:10;;;;;;;4.40;3.58;;;21.80;99.90;;;;;;4987941;28;20228;-82
2022/07/09 12:49:37;;;;;;;5.32;3.97;;;21.50;99.90;;;;;;4976517;28;20201;-83
2022/07/09 12:52:05;;;;;;;6.65;4.47;;;21.30;99.90;;;;;;4991128;28;20200;-81
2022/07/09 12:54:33;;;;;;;4.93;4.28;;;21.00;99.90;;;;;;4973626;28;20243;-83
2022/07/09 12:57:01;;;;;;;6.13;4.90;;;20.90;99.90;;;;;;4986391;28;20204;-80